Time;durP1;ratioP1;P1;durP2;ratioP2;P2;SDS_P1;SDS_P2;PMS_P1;PMS_P2;Temp;Humidity;BMP_temperature;BMP_pressure;BME280_temperature;BME280_humidity;BME280_pressure;Samples;Min_cycle;Max_cycle;Signal;HPM_P1;HPM_P2
2023/06/03 03:00:45;;;;;;;97.37;91.57;;;11.10;99.90;;;;;;5743978;23;20680;-76
2023/06/03 03:03:12;;;;;;;92.97;86.83;;;11.10;99.90;;;;;;4976468;28;20216;-75
2023/06/03 03:05:40;;;;;;;108.53;102.03;;;11.10;99.90;;;;;;4974937;28;20665;-74
2023/06/03 03:08:06;;;;;;;81.23;76.00;;;11.00;99.90;;;;;;4952722;28;20196;-72
2023/06/03 03:10:32;;;;;;;68.33;64.13;;;11.10;99.90;;;;;;4967788;28;20713;-72
2023/06/03 03:12:57;;;;;;;81.87;76.70;;;11.00;99.90;;;;;;4934759;29;20233;-72
2023/06/03 03:15:23;;;;;;;54.80;50.80;;;11.00;99.90;;;;;;4953531;28;20273;-72
2023/06/03 03:17:49;;;;;;;46.07;42.97;;;11.00;99.90;;;;;;4953849;28;20225;-72
2023/06/03 03:20:16;;;;;;;61.80;57.97;;;10.90;99.90;;;;;;4955083;28;20204;-72
2023/06/03 03:22:44;;;;;;;65.27;60.93;;;10.90;99.90;;;;;;4955166;28;20272;-72
2023/06/03 03:25:13;;;;;;;53.93;50.57;;;10.90;99.90;;;;;;4954832;28;20210;-72
2023/06/03 03:27:39;;;;;;;42.07;38.87;;;10.80;99.90;;;;;;4954755;28;20201;-72
2023/06/03 03:30:05;;;;;;;40.63;37.73;;;10.80;99.90;;;;;;4935397;28;20174;-72
2023/06/03 03:32:32;;;;;;;40.47;37.70;;;10.90;99.90;;;;;;4952248;28;20693;-72
2023/06/03 03:35:21;;;;;;;32.63;30.23;;;10.90;99.90;;;;;;4952639;28;20300;-72
2023/06/03 03:37:49;;;;;;;48.73;45.53;;;10.90;99.90;;;;;;4955273;28;20568;-72
2023/06/03 03:40:21;;;;;;;37.73;34.77;;;10.90;99.90;;;;;;4938516;29;20194;-72
2023/06/03 03:42:52;;;;;;;30.40;28.27;;;11.00;99.90;;;;;;4955002;28;20205;-72
2023/06/03 03:45:22;;;;;;;20.50;18.87;;;11.00;99.90;;;;;;4953981;28;20272;-71
2023/06/03 03:47:51;;;;;;;17.57;16.20;;;11.00;99.90;;;;;;4954109;28;20592;-70
2023/06/03 03:50:37;;;;;;;24.97;22.90;;;11.00;99.90;;;;;;4954622;28;20364;-71
2023/06/03 03:53:06;;;;;;;45.17;42.07;;;11.00;99.90;;;;;;4937243;29;20224;-71
2023/06/03 03:55:43;;;;;;;41.33;38.73;;;11.00;99.90;;;;;;4954415;28;20276;-71
2023/06/03 03:58:25;;;;;;;56.30;52.83;;;11.00;99.90;;;;;;4936963;29;20193;-71
2023/06/03 04:00:59;;;;;;;35.27;32.73;;;11.00;99.90;;;;;;4947929;28;20692;-71
2023/06/03 04:03:26;;;;;;;48.17;45.00;;;11.10;99.90;;;;;;4929941;28;20237;-71
2023/06/03 04:05:53;;;;;;;118.30;111.77;;;11.10;99.90;;;;;;4937377;29;20668;-71
2023/06/03 04:08:56;;;;;;;55.40;52.10;;;11.20;99.90;;;;;;4953682;28;20194;-70
2023/06/03 04:11:28;;;;;;;59.80;56.50;;;11.20;99.90;;;;;;4937148;29;20213;-71
2023/06/03 04:13:55;;;;;;;64.20;60.30;;;11.30;99.90;;;;;;4936774;29;20189;-70
2023/06/03 04:16:41;;;;;;;71.33;67.33;;;11.40;99.90;;;;;;4937149;28;20193;-70
2023/06/03 04:19:14;;;;;;;80.60;76.17;;;11.40;99.90;;;;;;4936588;29;20719;-70
2023/06/03 04:21:40;;;;;;;81.33;76.60;;;11.40;99.90;;;;;;4953074;28;20224;-71
2023/06/03 04:24:06;;;;;;;70.63;66.87;;;11.50;99.90;;;;;;4954002;28;20197;-73
2023/06/03 04:26:34;;;;;;;56.67;53.33;;;11.60;99.90;;;;;;4940572;28;20196;-70
2023/06/03 04:29:00;;;;;;;44.13;41.23;;;11.70;99.90;;;;;;4964320;28;20180;-71
2023/06/03 04:31:26;;;;;;;16.33;15.13;;;11.70;99.90;;;;;;4963554;28;20220;-71
2023/06/03 04:33:52;;;;;;;15.00;13.90;;;11.80;99.90;;;;;;4953840;28;20193;-71
2023/06/03 04:36:18;;;;;;;20.50;18.97;;;11.90;99.90;;;;;;4954307;28;20605;-71
2023/06/03 04:38:45;;;;;;;16.97;15.43;;;11.90;99.90;;;;;;4954282;28;20192;-71
2023/06/03 04:41:12;;;;;;;19.57;18.07;;;11.90;99.90;;;;;;4953541;28;20213;-71
2023/06/03 04:43:40;;;;;;;51.40;48.40;;;12.10;99.90;;;;;;4950854;28;20341;-71
2023/06/03 04:46:09;;;;;;;129.17;121.87;;;12.10;99.90;;;;;;4953564;28;20244;-70
2023/06/03 04:48:36;;;;;;;77.67;72.67;;;12.20;99.90;;;;;;4935849;28;20280;-71
2023/06/03 04:51:06;;;;;;;16.80;15.37;;;12.30;99.90;;;;;;4959635;28;20218;-71
2023/06/03 04:53:33;;;;;;;14.47;13.50;;;12.40;99.90;;;;;;4953821;28;20560;-71
2023/06/03 04:56:01;;;;;;;17.27;15.77;;;12.60;99.90;;;;;;4952429;28;20186;-70
2023/06/03 04:58:27;;;;;;;11.97;10.27;;;12.80;99.90;;;;;;4952825;28;20211;-71
2023/06/03 05:00:52;;;;;;;68.73;64.63;;;13.00;99.90;;;;;;4945053;28;20233;-71
2023/06/03 05:03:18;;;;;;;18.33;16.63;;;13.30;99.90;;;;;;4937070;28;20717;-70
2023/06/03 05:05:44;;;;;;;11.93;10.57;;;13.60;99.90;;;;;;4960586;28;20228;-71
2023/06/03 05:08:10;;;;;;;48.93;46.03;;;14.10;99.90;;;;;;4952710;28;20221;-71
2023/06/03 05:10:36;;;;;;;19.47;17.77;;;14.80;99.90;;;;;;4942571;28;20202;-71
2023/06/03 05:13:03;;;;;;;11.37;10.23;;;15.40;99.90;;;;;;4950997;28;20200;-70
2023/06/03 05:15:29;;;;;;;16.50;14.90;;;16.10;99.90;;;;;;4939070;28;20192;-71
2023/06/03 05:17:55;;;;;;;13.23;12.00;;;16.80;99.90;;;;;;4935353;29;20193;-71
2023/06/03 05:20:21;;;;;;;8.85;8.02;;;17.30;99.90;;;;;;4935687;28;20248;-71
2023/06/03 05:22:46;;;;;;;11.00;8.75;;;17.80;99.90;;;;;;4935902;29;20197;-71
2023/06/03 05:25:12;;;;;;;12.70;11.55;;;18.40;99.90;;;;;;4951732;28;20208;-71
2023/06/03 05:27:38;;;;;;;42.97;39.85;;;18.70;99.90;;;;;;4937279;29;20659;-71
2023/06/03 05:30:04;;;;;;;22.83;21.20;;;19.00;99.90;;;;;;4952845;28;20665;-72
2023/06/03 05:32:30;;;;;;;13.00;11.60;;;19.30;99.90;;;;;;4952362;28;20586;-71
2023/06/03 05:34:56;;;;;;;11.63;10.48;;;19.60;99.90;;;;;;4952881;28;20197;-72
2023/06/03 05:37:22;;;;;;;11.50;10.32;;;20.00;99.90;;;;;;4952241;28;20240;-72
2023/06/03 05:39:47;;;;;;;9.60;8.25;;;20.20;99.90;;;;;;4950547;28;20192;-71
2023/06/03 05:42:13;;;;;;;7.65;7.00;;;20.70;99.90;;;;;;4932250;29;20701;-71
2023/06/03 05:44:39;;;;;;;9.98;9.15;;;21.10;99.80;;;;;;4952491;28;20212;-73
2023/06/03 05:47:05;;;;;;;10.65;9.73;;;20.80;98.80;;;;;;4935248;29;20201;-72
2023/06/03 05:49:30;;;;;;;10.68;7.72;;;20.80;98.80;;;;;;4952398;28;20196;-72
2023/06/03 05:51:56;;;;;;;8.20;7.32;;;20.80;98.60;;;;;;4952650;28;20205;-72
2023/06/03 05:54:22;;;;;;;5.82;5.32;;;21.00;98.50;;;;;;4951499;28;20269;-72
2023/06/03 05:56:48;;;;;;;11.43;6.40;;;21.40;97.20;;;;;;4947165;28;20583;-71
2023/06/03 05:59:13;;;;;;;7.70;5.60;;;21.70;96.50;;;;;;4935196;29;20190;-72
2023/06/03 06:01:39;;;;;;;10.25;6.38;;;21.80;95.90;;;;;;4952291;28;20566;-72
2023/06/03 06:04:05;;;;;;;8.85;8.05;;;21.70;95.80;;;;;;4965328;28;20201;-72
2023/06/03 06:06:31;;;;;;;9.63;8.60;;;21.70;95.80;;;;;;4955836;28;20216;-71
2023/06/03 06:08:56;;;;;;;14.10;12.70;;;21.70;95.80;;;;;;4933799;29;20181;-73
2023/06/03 06:11:22;;;;;;;23.25;21.20;;;21.90;95.80;;;;;;4945485;28;20224;-73
2023/06/03 06:13:48;;;;;;;24.02;22.52;;;22.10;94.80;;;;;;4952377;28;20273;-73
2023/06/03 06:16:14;;;;;;;23.15;21.55;;;22.30;94.20;;;;;;4952913;28;20198;-73
2023/06/03 06:18:40;;;;;;;21.65;15.32;;;22.20;94.40;;;;;;4955982;28;20297;-72
2023/06/03 06:21:05;;;;;;;13.23;12.10;;;22.50;93.80;;;;;;4956123;28;20217;-74
2023/06/03 06:23:31;;;;;;;12.57;11.32;;;22.80;93.40;;;;;;4955097;28;20237;-72
2023/06/03 06:25:57;;;;;;;16.42;12.38;;;22.50;93.40;;;;;;4949489;28;20244;-72
2023/06/03 06:28:26;;;;;;;10.23;9.18;;;22.90;93.40;;;;;;4952140;28;20181;-72
2023/06/03 06:31:00;;;;;;;12.43;11.32;;;23.30;92.50;;;;;;4954553;28;20210;-72
2023/06/03 06:33:28;;;;;;;10.00;9.05;;;23.40;91.20;;;;;;4954957;28;20685;-73
2023/06/03 06:35:54;;;;;;;13.88;7.72;;;23.50;91.50;;;;;;4937364;29;20599;-73
2023/06/03 06:38:20;;;;;;;7.93;7.13;;;23.60;90.90;;;;;;4946543;28;20683;-73
2023/06/03 06:40:49;;;;;;;9.18;8.40;;;23.80;89.80;;;;;;4956110;28;20339;-72
2023/06/03 06:43:16;;;;;;;7.97;7.22;;;23.50;90.10;;;;;;4956263;28;20640;-72
2023/06/03 06:45:42;;;;;;;10.23;7.30;;;23.50;90.30;;;;;;4956145;28;20586;-74
2023/06/03 06:48:12;;;;;;;9.15;7.63;;;23.60;89.80;;;;;;4938627;29;20194;-71
2023/06/03 06:50:52;;;;;;;11.30;7.90;;;23.50;90.30;;;;;;4954955;28;20205;-72
2023/06/03 06:53:20;;;;;;;9.68;8.68;;;23.90;88.70;;;;;;4955708;28;20189;-72
2023/06/03 06:55:57;;;;;;;11.48;10.07;;;23.90;87.20;;;;;;4945610;29;20189;-74
2023/06/03 06:58:26;;;;;;;15.35;14.25;;;23.10;86.70;;;;;;4955772;28;20200;-73
2023/06/03 07:00:52;;;;;;;18.92;17.38;;;22.30;88.90;;;;;;4955790;28;20629;-73
2023/06/03 07:03:19;;;;;;;23.10;21.33;;;22.30;90.30;;;;;;4938137;28;20276;-72
2023/06/03 07:05:46;;;;;;;30.13;27.92;;;22.40;90.30;;;;;;4953515;28;20217;-72
2023/06/03 07:08:12;;;;;;;30.05;28.08;;;22.40;90.20;;;;;;4956225;28;20661;-73
2023/06/03 07:10:39;;;;;;;27.55;25.58;;;22.30;90.70;;;;;;4939173;29;20240;-73
2023/06/03 07:13:07;;;;;;;18.23;16.90;;;22.10;90.10;;;;;;4955604;28;20198;-71
2023/06/03 07:15:33;;;;;;;12.52;11.43;;;21.70;90.70;;;;;;4938249;28;20189;-71
2023/06/03 07:17:59;;;;;;;10.38;9.35;;;21.60;91.10;;;;;;4952059;28;20684;-73
2023/06/03 07:20:34;;;;;;;12.25;11.15;;;21.70;91.90;;;;;;4951147;28;20193;-71
2023/06/03 07:23:00;;;;;;;10.98;9.88;;;21.70;90.90;;;;;;4955205;28;20248;-71
2023/06/03 07:25:37;;;;;;;21.83;20.17;;;21.50;91.50;;;;;;4955148;28;20834;-73
2023/06/03 07:28:07;;;;;;;25.70;23.88;;;21.50;91.70;;;;;;4953994;28;20248;-71
2023/06/03 07:30:37;;;;;;;29.52;27.63;;;21.60;91.70;;;;;;4955148;28;20575;-72
2023/06/03 07:33:05;;;;;;;9.32;8.35;;;21.80;91.90;;;;;;4950404;28;20196;-72
2023/06/03 07:35:32;;;;;;;12.65;11.57;;;22.10;91.00;;;;;;4937755;28;20189;-72
2023/06/03 07:37:58;;;;;;;15.88;14.88;;;22.30;90.90;;;;;;4954555;28;20439;-73
2023/06/03 07:40:53;;;;;;;17.40;16.30;;;22.30;90.80;;;;;;4937875;28;20193;-71
2023/06/03 07:43:21;;;;;;;21.02;19.80;;;22.30;90.70;;;;;;4929306;28;20208;-72
2023/06/03 07:45:48;;;;;;;30.40;28.48;;;22.40;90.90;;;;;;4954094;28;20209;-72
2023/06/03 07:48:15;;;;;;;24.40;22.63;;;23.00;90.20;;;;;;4937274;28;20277;-72
2023/06/03 07:50:40;;;;;;;11.55;9.27;;;23.80;90.30;;;;;;4954550;28;20252;-71
2023/06/03 07:53:07;;;;;;;9.52;8.55;;;24.10;86.50;;;;;;4962470;28;20198;-71
2023/06/03 07:55:53;;;;;;;13.77;12.68;;;23.90;86.70;;;;;;4954462;28;20232;-69
2023/06/03 07:58:18;;;;;;;22.48;20.80;;;23.00;88.70;;;;;;4953566;28;20209;-69
2023/06/03 08:00:54;;;;;;;24.10;22.70;;;22.70;89.00;;;;;;4953008;28;20622;-69
2023/06/03 08:03:23;;;;;;;12.18;10.82;;;23.50;89.60;;;;;;4947160;28;20206;-69
2023/06/03 08:05:50;;;;;;;9.32;8.38;;;24.00;86.90;;;;;;4953784;28;20219;-69
2023/06/03 08:08:18;;;;;;;10.38;9.45;;;24.30;86.80;;;;;;4953684;28;20193;-69
2023/06/03 08:10:47;;;;;;;12.23;11.27;;;24.20;87.70;;;;;;4954007;28;20256;-70
2023/06/03 08:13:16;;;;;;;12.30;9.63;;;24.40;84.60;;;;;;4953481;28;20209;-69
2023/06/03 08:15:42;;;;;;;11.55;10.30;;;24.80;83.70;;;;;;4953819;28;20221;-69
2023/06/03 08:18:09;;;;;;;15.18;8.40;;;24.90;83.80;;;;;;4953527;28;20251;-68
2023/06/03 08:20:36;;;;;;;9.68;8.40;;;25.00;83.30;;;;;;4954035;28;20217;-69
2023/06/03 08:23:04;;;;;;;11.07;7.32;;;24.80;82.60;;;;;;4953869;28;20198;-68
2023/06/03 08:25:30;;;;;;;8.73;7.82;;;25.00;82.30;;;;;;4953703;28;20221;-70
2023/06/03 08:27:56;;;;;;;11.48;6.22;;;25.20;82.90;;;;;;4953155;28;20390;-69
2023/06/03 08:30:23;;;;;;;7.00;6.30;;;25.10;81.90;;;;;;4936652;28;20713;-69
2023/06/03 08:32:50;;;;;;;6.85;6.20;;;25.40;81.40;;;;;;4953674;28;20226;-70
2023/06/03 08:35:20;;;;;;;6.53;5.47;;;26.10;81.80;;;;;;4936547;28;20193;-69
2023/06/03 08:37:46;;;;;;;6.18;5.50;;;26.20;80.60;;;;;;4953190;28;20197;-69
2023/06/03 08:40:13;;;;;;;6.38;5.72;;;26.40;78.80;;;;;;4935995;28;20185;-69
2023/06/03 08:42:45;;;;;;;7.32;6.13;;;26.40;78.50;;;;;;4928810;29;20201;-69
2023/06/03 08:45:14;;;;;;;8.30;7.53;;;26.70;78.50;;;;;;4936535;29;20310;-70
2023/06/03 08:47:43;;;;;;;7.80;5.65;;;26.50;77.50;;;;;;4953628;28;20276;-68
2023/06/03 08:50:10;;;;;;;7.82;6.15;;;25.80;78.90;;;;;;4936730;29;20568;-69
2023/06/03 08:52:39;;;;;;;6.97;5.82;;;25.90;78.80;;;;;;4953451;28;20194;-69
2023/06/03 08:55:06;;;;;;;8.05;6.45;;;26.30;78.00;;;;;;4952968;28;20178;-70
2023/06/03 08:57:57;;;;;;;9.20;7.22;;;26.40;77.70;;;;;;4933070;28;20272;-73
2023/06/03 09:00:25;;;;;;;8.55;6.75;;;26.50;77.20;;;;;;4928058;28;20198;-73
2023/06/03 09:02:52;;;;;;;9.60;7.10;;;26.90;76.00;;;;;;4936148;29;20240;-70
2023/06/03 09:05:22;;;;;;;8.52;7.22;;;27.40;78.20;;;;;;4953203;28;20241;-72
2023/06/03 09:07:50;;;;;;;7.82;7.03;;;27.50;74.10;;;;;;4952165;28;20646;-70
2023/06/03 09:10:17;;;;;;;9.35;8.50;;;27.30;74.00;;;;;;4953208;28;20193;-71
2023/06/03 09:12:44;;;;;;;8.35;7.57;;;27.20;74.70;;;;;;4952734;28;20189;-72
2023/06/03 09:15:14;;;;;;;10.43;9.60;;;27.60;74.50;;;;;;4943402;28;20657;-72
2023/06/03 09:17:44;;;;;;;11.48;7.50;;;27.80;72.80;;;;;;4952617;28;20198;-72
2023/06/03 09:20:11;;;;;;;17.23;13.63;;;28.10;75.30;;;;;;4954410;28;20196;-72
2023/06/03 09:22:37;;;;;;;13.77;12.82;;;28.60;71.50;;;;;;4951314;28;20189;-71
2023/06/03 09:25:04;;;;;;;10.35;9.45;;;27.70;72.90;;;;;;4945258;28;20210;-70
2023/06/03 09:27:31;;;;;;;10.27;9.27;;;27.60;74.00;;;;;;4942063;28;20178;-70
2023/06/03 09:29:58;;;;;;;10.98;10.05;;;27.70;74.00;;;;;;4952734;28;20240;-70
2023/06/03 09:32:23;;;;;;;13.13;12.07;;;28.00;73.00;;;;;;4949791;28;20205;-70
2023/06/03 09:34:50;;;;;;;16.00;14.80;;;27.90;72.40;;;;;;4952532;28;20189;-73
2023/06/03 09:37:15;;;;;;;11.73;10.73;;;27.90;71.90;;;;;;4934760;28;20182;-70
2023/06/03 09:39:41;;;;;;;10.77;9.82;;;28.00;72.70;;;;;;4952875;28;20197;-70
2023/06/03 09:42:08;;;;;;;9.60;8.70;;;27.90;73.80;;;;;;4952895;28;20210;-70
2023/06/03 09:44:49;;;;;;;15.70;14.55;;;28.30;73.70;;;;;;4949579;28;20217;-69
2023/06/03 09:47:16;;;;;;;21.73;20.20;;;29.00;70.10;;;;;;4951991;28;20207;-69
2023/06/03 09:50:06;;;;;;;14.88;13.65;;;28.30;70.90;;;;;;4950308;28;20174;-69
2023/06/03 09:52:33;;;;;;;9.57;7.95;;;27.20;71.10;;;;;;4957912;28;20209;-69
2023/06/03 09:55:04;;;;;;;10.63;9.55;;;27.10;73.00;;;;;;4957414;28;20285;-69
2023/06/03 09:57:29;;;;;;;12.30;11.15;;;27.30;72.40;;;;;;4958569;28;20197;-72
2023/06/03 10:00:12;;;;;;;15.68;13.63;;;27.40;72.60;;;;;;4957893;28;20212;-71
2023/06/03 10:02:43;;;;;;;23.65;22.25;;;28.00;71.60;;;;;;4959286;28;20204;-70
2023/06/03 10:05:29;;;;;;;19.38;18.08;;;28.60;68.70;;;;;;4965262;28;20652;-71
2023/06/03 10:07:55;;;;;;;23.63;22.15;;;29.00;67.80;;;;;;4952378;28;20193;-71
2023/06/03 10:10:22;;;;;;;17.85;16.58;;;28.60;69.60;;;;;;4958182;28;20189;-71
2023/06/03 10:12:49;;;;;;;13.13;12.18;;;28.90;68.50;;;;;;4958650;28;20189;-71
2023/06/03 10:15:37;;;;;;;6.90;5.57;;;29.30;68.10;;;;;;4958255;28;20189;-71
2023/06/03 10:18:05;;;;;;;7.18;6.57;;;29.60;67.40;;;;;;4952782;28;20253;-71
2023/06/03 10:20:35;;;;;;;10.15;6.80;;;29.20;66.70;;;;;;4940034;28;20764;-71
2023/06/03 10:23:02;;;;;;;8.02;6.78;;;29.30;67.00;;;;;;4958673;28;20200;-71
2023/06/03 10:25:42;;;;;;;7.45;5.90;;;29.40;67.50;;;;;;4932712;28;20202;-71
2023/06/03 10:28:13;;;;;;;9.30;7.05;;;29.80;65.40;;;;;;4949846;28;20192;-71
2023/06/03 10:30:40;;;;;;;8.43;7.72;;;28.90;65.20;;;;;;4941073;29;20544;-71
2023/06/03 10:33:08;;;;;;;8.10;7.18;;;28.40;66.70;;;;;;4962950;28;20189;-71
2023/06/03 10:35:36;;;;;;;9.75;7.38;;;28.70;66.20;;;;;;4966148;28;20200;-71
2023/06/03 10:38:05;;;;;;;6.93;6.13;;;29.30;67.30;;;;;;4941076;29;20197;-72
2023/06/03 10:40:30;;;;;;;6.60;6.07;;;30.50;64.30;;;;;;4949997;28;20213;-69
2023/06/03 10:42:57;;;;;;;9.50;7.40;;;31.00;63.00;;;;;;4959082;28;20197;-70
2023/06/03 10:45:24;;;;;;;7.07;6.53;;;30.50;63.10;;;;;;4954553;28;20206;-70
2023/06/03 10:47:56;;;;;;;8.60;6.50;;;30.60;64.50;;;;;;4941256;29;20192;-70
2023/06/03 10:50:49;;;;;;;7.97;6.47;;;30.40;62.50;;;;;;4950957;28;20197;-70
2023/06/03 10:53:40;;;;;;;8.60;7.22;;;30.30;62.80;;;;;;4958216;28;20540;-70
2023/06/03 10:56:14;;;;;;;11.27;7.68;;;30.30;63.00;;;;;;4946978;28;20366;-70
2023/06/03 10:58:42;;;;;;;10.15;8.73;;;30.70;62.10;;;;;;4956187;28;20200;-76
2023/06/03 11:01:08;;;;;;;14.38;13.52;;;31.40;61.60;;;;;;4936278;29;20932;-76
2023/06/03 11:04:02;;;;;;;11.90;11.10;;;31.20;59.40;;;;;;4936393;28;20249;-76
2023/06/03 11:06:28;;;;;;;16.33;15.00;;;30.80;60.80;;;;;;4937510;28;20245;-76
2023/06/03 11:09:08;;;;;;;19.17;17.50;;;30.90;60.10;;;;;;4938059;29;20657;-76
2023/06/03 11:11:52;;;;;;;14.73;13.73;;;31.70;59.80;;;;;;4955713;28;20225;-75
2023/06/03 11:14:24;;;;;;;12.88;11.68;;;31.20;59.70;;;;;;4949421;28;20240;-76
2023/06/03 11:16:56;;;;;;;8.13;7.18;;;30.80;59.30;;;;;;4943519;28;20720;-76
2023/06/03 11:19:44;;;;;;;6.65;6.15;;;29.60;61.90;;;;;;4941360;28;20193;-76
2023/06/03 11:22:11;;;;;;;8.60;7.18;;;29.10;63.20;;;;;;4938544;29;20251;-75
2023/06/03 11:24:41;;;;;;;11.93;7.07;;;29.90;62.50;;;;;;4952715;28;20205;-75
2023/06/03 11:27:14;;;;;;;9.07;8.13;;;30.50;60.60;;;;;;4937059;29;20637;-76
2023/06/03 11:29:46;;;;;;;8.88;6.97;;;29.70;60.90;;;;;;4949926;28;20189;-75
2023/06/03 11:32:16;;;;;;;9.15;7.78;;;28.90;62.40;;;;;;4954872;28;20761;-76
2023/06/03 11:34:46;;;;;;;9.23;6.97;;;28.40;63.50;;;;;;4950200;28;20684;-77
2023/06/03 11:37:23;;;;;;;8.18;7.05;;;28.80;63.80;;;;;;4954615;28;20684;-75
2023/06/03 11:40:05;;;;;;;11.90;10.93;;;28.40;62.80;;;;;;4949677;28;20205;-76
2023/06/03 11:42:46;;;;;;;22.45;20.92;;;27.30;65.50;;;;;;4925165;28;20309;-76
2023/06/03 11:45:21;;;;;;;35.88;33.72;;;27.00;66.10;;;;;;4953888;28;20213;-76
2023/06/03 11:47:53;;;;;;;23.45;22.10;;;26.80;68.10;;;;;;4954264;28;20212;-78
2023/06/03 11:50:20;;;;;;;31.05;28.80;;;27.10;66.90;;;;;;4958560;28;20293;-76
2023/06/03 11:52:46;;;;;;;9.00;8.20;;;28.70;66.30;;;;;;4954479;28;20317;-76
2023/06/03 11:55:22;;;;;;;7.22;6.50;;;30.40;61.40;;;;;;4933586;29;20291;-76
2023/06/03 11:57:48;;;;;;;6.78;6.22;;;30.60;58.60;;;;;;4951542;28;20225;-76
2023/06/03 12:00:15;;;;;;;7.05;6.43;;;30.10;58.30;;;;;;4930426;28;20213;-76
2023/06/03 12:02:46;;;;;;;8.60;7.80;;;30.20;59.30;;;;;;4954340;28;20658;-77
2023/06/03 12:05:16;;;;;;;20.52;18.95;;;31.00;57.70;;;;;;4933780;29;20292;-77
2023/06/03 12:07:54;;;;;;;49.03;45.78;;;32.10;56.00;;;;;;4936784;29;20190;-76
2023/06/03 12:10:20;;;;;;;40.45;38.15;;;32.70;54.50;;;;;;4933453;28;20348;-76
2023/06/03 12:12:57;;;;;;;43.97;41.28;;;32.30;53.30;;;;;;4954288;28;20264;-76
2023/06/03 12:15:24;;;;;;;40.95;38.53;;;31.90;54.90;;;;;;4933892;28;20724;-76
2023/06/03 12:17:51;;;;;;;20.95;19.73;;;32.80;53.80;;;;;;4961574;28;20189;-77
2023/06/03 12:20:27;;;;;;;14.35;13.25;;;34.20;53.40;;;;;;4934591;28;20537;-77
2023/06/03 12:22:59;;;;;;;21.33;19.63;;;34.70;51.20;;;;;;4954135;28;20208;-77
2023/06/03 12:25:25;;;;;;;11.60;10.52;;;33.90;50.90;;;;;;4953000;28;20209;-76
2023/06/03 12:27:51;;;;;;;38.63;36.40;;;31.60;52.10;;;;;;4936598;29;20244;-76
2023/06/03 12:30:31;;;;;;;15.35;14.00;;;29.70;55.10;;;;;;4934802;28;20280;-76
2023/06/03 12:32:58;;;;;;;6.85;6.10;;;28.10;57.70;;;;;;4954258;28;20196;-75
2023/06/03 12:35:28;;;;;;;7.45;6.80;;;27.60;58.40;;;;;;4935044;29;20240;-75
2023/06/03 12:38:08;;;;;;;6.30;5.80;;;27.30;59.20;;;;;;4935654;29;20181;-76
2023/06/03 12:40:35;;;;;;;7.78;6.40;;;27.50;59.40;;;;;;4935126;28;20216;-76
2023/06/03 12:43:02;;;;;;;9.07;6.70;;;27.70;58.40;;;;;;4936380;29;20198;-76
2023/06/03 12:45:29;;;;;;;7.50;6.40;;;27.80;58.80;;;;;;4943226;28;20449;-78
2023/06/03 12:47:55;;;;;;;8.18;5.85;;;28.40;59.10;;;;;;4953090;28;20186;-76
2023/06/03 12:50:23;;;;;;;22.38;20.75;;;29.90;54.80;;;;;;4953239;28;20189;-77
2023/06/03 12:52:49;;;;;;;51.75;48.47;;;31.30;53.30;;;;;;4935708;29;20193;-76
2023/06/03 12:55:17;;;;;;;39.90;37.70;;;32.30;53.20;;;;;;4954437;28;20200;-77
2023/06/03 12:57:50;;;;;;;19.35;18.05;;;33.50;50.70;;;;;;4944031;29;20264;-77
2023/06/03 13:00:21;;;;;;;20.17;18.80;;;34.60;49.60;;;;;;4936381;28;20283;-77
2023/06/03 13:02:56;;;;;;;20.05;18.90;;;35.80;48.40;;;;;;4953637;28;20618;-77
2023/06/03 13:05:22;;;;;;;16.65;15.57;;;35.90;46.00;;;;;;4935830;28;20572;-77
2023/06/03 13:07:49;;;;;;;22.70;21.42;;;35.10;46.40;;;;;;4935208;29;20229;-77
2023/06/03 13:10:16;;;;;;;27.15;25.48;;;34.60;48.10;;;;;;4936363;28;20194;-76
2023/06/03 13:12:43;;;;;;;27.77;25.77;;;33.40;47.60;;;;;;4938560;29;20192;-76
2023/06/03 13:15:10;;;;;;;16.70;15.45;;;32.20;49.30;;;;;;4940010;29;20198;-76
2023/06/03 13:17:37;;;;;;;13.38;12.38;;;31.50;50.90;;;;;;4958407;28;20218;-76
2023/06/03 13:20:06;;;;;;;17.60;16.40;;;31.40;51.60;;;;;;4954359;28;20570;-76
2023/06/03 13:25:06;;;;;;;23.83;22.15;;;33.10;49.30;;;;;;4949356;28;20232;-76
2023/06/03 13:27:32;;;;;;;27.33;25.63;;;32.90;49.50;;;;;;4934028;28;20192;-76
2023/06/03 13:29:58;;;;;;;27.48;25.67;;;32.90;49.90;;;;;;4953039;28;20190;-76
2023/06/03 13:32:24;;;;;;;24.35;22.13;;;33.90;48.00;;;;;;4944512;28;20736;-76
2023/06/03 13:34:52;;;;;;;18.83;17.70;;;34.50;46.10;;;;;;4957029;28;20774;-77
2023/06/03 13:37:18;;;;;;;20.95;19.65;;;34.20;45.10;;;;;;4936762;28;20277;-76
2023/06/03 13:39:44;;;;;;;18.45;17.27;;;33.40;45.60;;;;;;4952226;28;20192;-76
2023/06/03 13:42:10;;;;;;;25.80;24.15;;;33.10;45.90;;;;;;4952891;29;20217;-76
2023/06/03 13:44:35;;;;;;;35.08;32.88;;;32.30;47.40;;;;;;4974639;28;20191;-78
2023/06/03 13:47:03;;;;;;;31.35;29.52;;;31.80;48.30;;;;;;4965490;28;20199;-77
2023/06/03 13:49:29;;;;;;;21.33;19.67;;;32.70;46.90;;;;;;4971959;28;20185;-74
2023/06/03 13:51:55;;;;;;;15.82;14.45;;;34.20;45.80;;;;;;4964528;28;20776;-77
2023/06/03 13:54:22;;;;;;;12.55;11.50;;;35.10;44.80;;;;;;4948822;28;20178;-75
2023/06/03 13:56:50;;;;;;;14.02;13.15;;;35.80;43.20;;;;;;4964922;28;20672;-77
2023/06/03 13:59:16;;;;;;;15.38;14.38;;;35.30;43.70;;;;;;4955317;28;20716;-76
2023/06/03 14:01:41;;;;;;;20.13;19.05;;;34.30;44.60;;;;;;4969764;28;20696;-76
2023/06/03 14:04:08;;;;;;;14.88;13.60;;;34.10;45.60;;;;;;4942016;28;20203;-77
2023/06/03 14:06:33;;;;;;;10.63;7.93;;;34.80;45.10;;;;;;4966606;28;20271;-77
2023/06/03 14:08:59;;;;;;;10.32;9.43;;;34.90;42.70;;;;;;4961679;28;20193;-77
2023/06/03 14:11:25;;;;;;;12.32;11.43;;;34.30;43.60;;;;;;4942619;28;20206;-76
2023/06/03 14:13:51;;;;;;;18.80;17.63;;;33.40;44.50;;;;;;4954218;28;20181;-76
2023/06/03 14:16:17;;;;;;;14.32;13.32;;;33.20;45.50;;;;;;4946244;28;20680;-76
2023/06/03 14:18:42;;;;;;;22.40;20.70;;;33.50;44.20;;;;;;4967921;28;20196;-76
2023/06/03 14:21:08;;;;;;;23.85;22.35;;;32.70;45.00;;;;;;4940962;29;20686;-76
2023/06/03 14:23:34;;;;;;;26.92;25.38;;;31.70;46.00;;;;;;4952836;28;20248;-76
2023/06/03 14:26:01;;;;;;;21.23;19.95;;;30.60;48.10;;;;;;4946364;28;20275;-76
2023/06/03 14:28:27;;;;;;;24.92;23.10;;;30.20;49.80;;;;;;4970500;28;20196;-76
2023/06/03 14:30:54;;;;;;;26.85;25.15;;;30.30;48.90;;;;;;4964255;28;20788;-76
2023/06/03 14:33:21;;;;;;;23.83;22.23;;;30.20;49.60;;;;;;4953273;28;20185;-77
2023/06/03 14:35:46;;;;;;;22.63;20.98;;;31.00;48.70;;;;;;4958201;28;20190;-77
2023/06/03 14:38:13;;;;;;;25.10;23.50;;;32.50;48.40;;;;;;4941169;29;20192;-77
2023/06/03 14:40:39;;;;;;;21.40;19.70;;;34.20;45.30;;;;;;4971487;28;20209;-80
2023/06/03 14:43:05;;;;;;;16.83;15.70;;;34.70;43.90;;;;;;4968515;28;20197;-78
2023/06/03 14:45:30;;;;;;;16.00;14.85;;;35.40;42.20;;;;;;4960336;28;20213;-79
2023/06/03 14:47:56;;;;;;;9.30;8.73;;;35.20;43.30;;;;;;4984993;28;20185;-78
2023/06/03 14:50:22;;;;;;;11.93;11.15;;;35.00;42.10;;;;;;4958423;28;20197;-79
2023/06/03 14:52:48;;;;;;;13.18;12.43;;;34.30;42.80;;;;;;4966508;28;20208;-79
2023/06/03 14:55:13;;;;;;;11.80;10.95;;;34.40;43.30;;;;;;4986833;28;20253;-78
2023/06/03 14:57:39;;;;;;;14.05;13.00;;;34.80;42.60;;;;;;4980113;28;20185;-78
2023/06/03 15:00:06;;;;;;;15.90;14.75;;;34.50;43.40;;;;;;4989116;28;20204;-78
2023/06/03 15:02:31;;;;;;;14.32;13.18;;;33.90;44.40;;;;;;4975360;28;20268;-79
2023/06/03 15:04:57;;;;;;;10.85;10.25;;;34.50;43.60;;;;;;4976202;28;20273;-78
2023/06/03 15:07:23;;;;;;;15.82;14.73;;;34.60;42.70;;;;;;4963217;28;20196;-77
2023/06/03 15:09:49;;;;;;;10.25;8.50;;;34.10;44.20;;;;;;4976543;28;20193;-77
2023/06/03 15:12:15;;;;;;;13.52;12.27;;;33.80;42.60;;;;;;4963961;28;20692;-78
2023/06/03 15:14:40;;;;;;;19.65;18.55;;;32.50;44.80;;;;;;4949933;28;20192;-78
2023/06/03 15:17:06;;;;;;;28.25;26.52;;;31.70;46.10;;;;;;4956536;28;20189;-79
2023/06/03 15:19:32;;;;;;;21.85;20.63;;;31.00;47.30;;;;;;4983695;28;20190;-79
2023/06/03 15:21:57;;;;;;;23.83;22.45;;;30.50;49.40;;;;;;4992976;28;20212;-77
2023/06/03 15:24:23;;;;;;;22.13;20.60;;;31.00;47.80;;;;;;4989043;28;20208;-77
2023/06/03 15:26:49;;;;;;;20.90;19.60;;;31.50;46.00;;;;;;4959378;28;20259;-77
2023/06/03 15:29:16;;;;;;;25.42;23.80;;;30.90;47.20;;;;;;4983715;28;20212;-79
2023/06/03 15:31:42;;;;;;;31.23;29.17;;;30.90;47.00;;;;;;4983100;28;20661;-78
2023/06/03 15:34:07;;;;;;;31.75;30.05;;;30.90;46.70;;;;;;4991650;28;20197;-79
2023/06/03 15:36:33;;;;;;;37.63;35.55;;;30.80;46.90;;;;;;4985732;28;20198;-78
2023/06/03 15:38:59;;;;;;;45.78;43.28;;;30.30;48.50;;;;;;4989317;28;20189;-80
2023/06/03 15:41:26;;;;;;;53.15;49.80;;;29.90;48.60;;;;;;4980336;28;20280;-79
2023/06/03 15:43:55;;;;;;;42.95;40.65;;;30.50;49.20;;;;;;4954941;28;20193;-79